Location Sebastian, FL, US

ob KFLSEBAS1 251250Z AUTO 09000G09KT FEW024 26/22 A3014 RMK SLPNO 

2019.05.25 1250 UTC
Wind from the E (91 degrees) at Calm MPH ( KT) gusting to 10.0 MPH (9 KT)
Visibility    Mile(s)
Sky Conditions  partly cloudy
Temperature 78.20 F (26 C)
Dew Point 71.16 F (22 C)
Relative Humidity 79%
Pressure   30.14 in. Hg (1021 hPa)
Rain  0.00 in.
Daily Rain  in.

Station Name  Memory Makers, Inc.
Longitude, Latitude  -80.48, 27.8
Elevation 23
Station URL www.kflsebas1.com
Software Type VWS V15.00